createdAt,value
2018-04-28T00:00:20.886Z,90.80
2018-04-28T00:02:46.998Z,91.00
2018-04-28T00:05:13.840Z,91.30
2018-04-28T00:07:40.068Z,91.60
2018-04-28T00:10:06.906Z,91.30
2018-04-28T00:12:34.769Z,90.70
2018-04-28T00:15:02.402Z,91.10
2018-04-28T00:17:32.275Z,91.10
2018-04-28T00:19:59.007Z,91.40
2018-04-28T00:22:26.076Z,91.60
2018-04-28T00:24:56.024Z,91.80
2018-04-28T00:27:26.163Z,91.80
2018-04-28T00:29:57.223Z,91.60
2018-04-28T00:32:25.222Z,91.20
2018-04-28T00:34:58.270Z,91.10
2018-04-28T00:37:26.501Z,91.10
2018-04-28T00:39:53.776Z,90.70
2018-04-28T00:42:22.601Z,90.70
2018-04-28T00:44:48.897Z,90.60
2018-04-28T00:47:17.705Z,90.70
2018-04-28T00:50:10.414Z,90.70
2018-04-28T00:52:37.332Z,91.20
2018-04-28T00:55:07.285Z,90.70
2018-04-28T01:00:55.747Z,90.70
2018-04-28T01:03:23.996Z,90.80
2018-04-28T01:05:50.237Z,91.00
2018-04-28T01:08:25.306Z,91.10
2018-04-28T01:10:51.337Z,91.10
2018-04-28T01:13:17.430Z,91.30
2018-04-28T01:15:44.848Z,91.50
2018-04-28T01:18:26.759Z,91.50
2018-04-28T01:21:08.525Z,91.70
2018-04-28T01:23:38.250Z,92.00
2018-04-28T01:26:11.106Z,91.70
2018-04-28T01:28:46.941Z,92.00
2018-04-28T01:31:12.964Z,92.40
2018-04-28T01:33:51.491Z,92.20
2018-04-28T01:36:31.300Z,92.10
2018-04-28T01:38:58.186Z,92.20
2018-04-28T01:44:32.058Z,92.40
2018-04-28T01:47:19.342Z,92.60
2018-04-28T01:50:01.289Z,92.60
2018-04-28T01:52:32.585Z,92.80
2018-04-28T01:55:03.944Z,92.70
2018-04-28T02:00:51.518Z,92.80
2018-04-28T02:03:28.720Z,92.90
2018-04-28T02:06:01.788Z,92.90
2018-04-28T02:08:28.634Z,93.20
2018-04-28T02:10:56.504Z,93.20
2018-04-28T02:13:33.400Z,93.40
2018-04-28T02:16:01.433Z,93.40
2018-04-28T02:18:30.361Z,93.30
2018-04-28T02:21:09.473Z,93.60
2018-04-28T02:23:53.379Z,93.50
2018-04-28T02:26:20.971Z,93.60
2018-04-28T02:32:10.037Z,94.00
2018-04-28T02:34:40.937Z,94.60
2018-04-28T02:37:13.987Z,94.50
2018-04-28T02:39:49.745Z,94.70
2018-04-28T02:42:23.139Z,94.70
2018-04-28T02:44:56.684Z,94.90
2018-04-28T02:47:23.691Z,95.20
2018-04-28T02:49:51.538Z,95.40
2018-04-28T02:52:20.729Z,95.80
2018-04-28T02:54:49.985Z,96.20
2018-04-28T02:57:22.027Z,96.60
2018-04-28T02:59:57.271Z,96.80
2018-04-28T03:02:32.213Z,97.00
2018-04-28T03:05:01.039Z,97.30
2018-04-28T03:07:37.347Z,97.80
2018-04-28T03:10:12.073Z,98.30
2018-04-28T03:12:38.323Z,98.80
2018-04-28T03:15:05.305Z,99.20
2018-04-28T03:17:37.439Z,99.20
2018-04-28T03:20:07.574Z,99.80
2018-04-28T03:22:33.674Z,99.90
2018-04-28T03:28:09.111Z,99.90
2018-04-28T03:30:38.170Z,99.90
2018-04-28T03:33:09.069Z,99.90
2018-04-28T03:35:48.223Z,99.90
2018-04-28T03:38:17.295Z,99.90
2018-04-28T03:40:44.789Z,99.90
2018-04-28T03:46:11.641Z,99.90
2018-04-28T03:48:39.603Z,99.90
2018-04-28T03:51:18.425Z,99.90
2018-04-28T03:53:53.909Z,99.90
2018-04-28T03:56:20.079Z,99.90
2018-04-28T03:58:58.673Z,99.90
2018-04-28T04:01:36.984Z,99.90
2018-04-28T04:04:04.964Z,99.90
2018-04-28T04:06:43.707Z,99.90
2018-04-28T04:09:19.881Z,99.90
2018-04-28T04:12:03.742Z,99.90
2018-04-28T04:17:31.036Z,99.90
2018-04-28T04:20:08.678Z,99.90
2018-04-28T04:22:35.723Z,99.90
2018-04-28T04:25:04.906Z,99.90
2018-04-28T04:27:43.515Z,99.90
2018-04-28T04:30:21.130Z,99.90
2018-04-28T04:32:49.816Z,99.90
2018-04-28T04:38:15.711Z,99.90
2018-04-28T04:40:43.379Z,99.90
2018-04-28T04:43:21.164Z,99.90
2018-04-28T04:45:50.589Z,99.90
2018-04-28T04:48:16.638Z,99.90
2018-04-28T04:50:54.169Z,99.90
2018-04-28T04:56:32.007Z,99.90
2018-04-28T04:59:02.001Z,99.90
2018-04-28T05:01:38.226Z,99.90
2018-04-28T05:07:20.758Z,99.90
2018-04-28T05:10:06.558Z,99.90
2018-04-28T05:12:45.325Z,99.90
2018-04-28T05:15:23.645Z,99.90
2018-04-28T05:18:08.543Z,99.90
2018-04-28T05:20:48.491Z,99.90
2018-04-28T05:23:21.771Z,99.90
2018-04-28T05:25:54.097Z,99.90
2018-04-28T05:31:51.790Z,99.90
2018-04-28T05:34:25.945Z,99.90
2018-04-28T05:36:52.727Z,99.90
2018-04-28T05:39:31.954Z,99.90
2018-04-28T05:42:20.771Z,99.90
2018-04-28T05:44:48.839Z,99.90
2018-04-28T05:47:23.860Z,99.90
2018-04-28T05:53:08.211Z,99.90
2018-04-28T05:55:57.330Z,99.90
2018-04-28T05:58:34.097Z,99.90
2018-04-28T06:01:04.113Z,99.90
2018-04-28T06:04:02.013Z,99.90
2018-04-28T06:06:45.919Z,99.90
2018-04-28T06:09:18.822Z,99.90
2018-04-28T06:11:54.821Z,99.90
2018-04-28T06:14:43.848Z,99.90
2018-04-28T06:17:12.710Z,99.90
2018-04-28T06:19:46.726Z,99.90
2018-04-28T06:22:14.534Z,99.90
2018-04-28T06:24:41.318Z,99.90
2018-04-28T06:27:09.335Z,99.10
2018-04-28T06:29:36.443Z,99.10
2018-04-28T06:32:03.290Z,98.10
2018-04-28T06:34:32.372Z,98.00
2018-04-28T06:37:02.740Z,97.90
2018-04-28T06:39:28.931Z,97.70
2018-04-28T06:41:55.271Z,97.30
2018-04-28T06:44:21.436Z,96.40
2018-04-28T06:46:48.332Z,96.30
2018-04-28T06:49:14.454Z,96.30
2018-04-28T06:51:40.634Z,95.60
2018-04-28T06:54:06.852Z,95.40
2018-04-28T06:56:33.245Z,95.20
2018-04-28T06:58:59.317Z,94.40
2018-04-28T07:01:25.393Z,94.60
2018-04-28T07:03:52.453Z,93.90
2018-04-28T07:06:18.669Z,93.90
2018-04-28T07:08:45.795Z,93.50
2018-04-28T07:11:13.352Z,93.80
2018-04-28T07:13:39.528Z,92.90
2018-04-28T07:16:05.871Z,93.20
2018-04-28T07:18:32.097Z,93.10
2018-04-28T07:21:00.123Z,92.70
2018-04-28T07:23:26.123Z,92.70
2018-04-28T07:25:53.060Z,92.50
2018-04-28T07:28:19.985Z,91.80
2018-04-28T07:30:46.914Z,91.80
2018-04-28T07:33:14.318Z,91.70
2018-04-28T07:35:41.837Z,91.80
2018-04-28T07:38:08.923Z,91.80
2018-04-28T07:40:36.340Z,91.70
2018-04-28T07:43:02.526Z,91.50
2018-04-28T07:45:30.406Z,91.10
2018-04-28T07:47:56.761Z,91.10
2018-04-28T07:50:23.648Z,91.30
2018-04-28T07:52:51.040Z,91.40
2018-04-28T07:55:17.425Z,91.40
2018-04-28T07:57:43.554Z,91.00
2018-04-28T08:00:11.955Z,91.40
2018-04-28T08:02:38.158Z,91.60
2018-04-28T08:05:04.415Z,91.90
2018-04-28T08:07:31.220Z,91.10
2018-04-28T08:09:59.969Z,91.00
2018-04-28T08:12:26.500Z,90.80
2018-04-28T08:14:53.821Z,90.80
2018-04-28T08:17:20.028Z,90.10
2018-04-28T08:22:24.311Z,89.80
2018-04-28T08:24:50.536Z,90.20
2018-04-28T08:27:19.635Z,89.70
2018-04-28T08:29:45.805Z,90.00
2018-04-28T08:32:12.290Z,89.60
2018-04-28T08:34:38.565Z,89.50
2018-04-28T08:37:05.658Z,88.10
2018-04-28T08:39:32.308Z,88.10
2018-04-28T08:41:58.589Z,88.50
2018-04-28T08:44:25.696Z,88.10
2018-04-28T08:46:52.245Z,87.00
2018-04-28T08:49:18.619Z,87.20
2018-04-28T08:51:44.833Z,86.80
2018-04-28T08:54:11.025Z,87.20
2018-04-28T08:56:38.227Z,87.40
2018-04-28T08:59:06.397Z,87.30
2018-04-28T09:01:32.511Z,87.80
2018-04-28T09:03:58.861Z,87.50
2018-04-28T09:06:25.301Z,86.80
2018-04-28T09:08:53.136Z,87.50
2018-04-28T09:11:20.028Z,86.70
2018-04-28T09:13:46.257Z,86.60
2018-04-28T09:16:12.709Z,88.20
2018-04-28T09:18:38.920Z,86.60
2018-04-28T09:21:05.780Z,85.00
2018-04-28T09:23:32.416Z,85.00
2018-04-28T09:25:59.609Z,85.20
2018-04-28T09:28:27.645Z,83.70
2018-04-28T09:30:56.429Z,82.40
2018-04-28T09:33:22.823Z,82.40
2018-04-28T09:35:52.671Z,80.50
2018-04-28T09:38:20.140Z,78.50
2018-04-28T09:40:48.207Z,79.90
2018-04-28T09:43:15.519Z,82.00
2018-04-28T09:45:43.524Z,81.80
2018-04-28T09:48:10.248Z,81.50
2018-04-28T09:50:37.927Z,82.20
2018-04-28T09:53:10.441Z,82.10
2018-04-28T09:55:46.129Z,79.80
2018-04-28T09:58:17.090Z,78.70
2018-04-28T10:00:55.561Z,75.30
2018-04-28T10:06:03.957Z,78.50
2018-04-28T10:08:34.278Z,75.30
2018-04-28T10:11:04.120Z,76.90
2018-04-28T10:16:19.881Z,75.80
2018-04-28T10:18:51.329Z,74.60
2018-04-28T10:21:18.971Z,74.60
2018-04-28T10:23:46.167Z,73.80
2018-04-28T10:26:13.394Z,72.50
2018-04-28T10:28:42.840Z,70.10
2018-04-28T10:31:10.872Z,69.10
2018-04-28T10:33:37.909Z,69.80
2018-04-28T10:38:43.474Z,66.40
2018-04-28T10:41:11.446Z,65.90
2018-04-28T10:43:38.948Z,66.00
2018-04-28T10:46:05.440Z,58.10
2018-04-28T10:48:32.946Z,59.10
2018-04-28T10:51:02.403Z,59.30
2018-04-28T10:53:35.604Z,59.20
2018-04-28T10:56:02.039Z,60.00
2018-04-28T10:58:29.902Z,61.20
2018-04-28T11:00:57.260Z,59.90
2018-04-28T11:03:24.089Z,61.00
2018-04-28T11:06:04.733Z,61.00
2018-04-28T11:08:31.652Z,60.60
2018-04-28T11:11:08.443Z,60.70
2018-04-28T11:13:35.179Z,62.00
2018-04-28T11:16:02.482Z,61.40
2018-04-28T11:21:01.841Z,59.20
2018-04-28T11:23:30.284Z,59.00
2018-04-28T11:25:57.840Z,58.90
2018-04-28T11:28:24.800Z,58.50
2018-04-28T11:30:51.539Z,58.00
2018-04-28T11:33:18.857Z,57.50
2018-04-28T11:35:45.546Z,57.80
2018-04-28T11:38:12.009Z,57.50
2018-04-28T11:40:39.749Z,57.20
2018-04-28T11:43:06.352Z,57.00
2018-04-28T11:45:33.007Z,57.40
2018-04-28T11:47:59.220Z,56.70
2018-04-28T11:50:25.376Z,55.90
2018-04-28T11:52:51.713Z,56.20
2018-04-28T11:55:18.920Z,56.60
2018-04-28T11:57:47.345Z,56.40
2018-04-28T12:00:15.509Z,57.20
2018-04-28T12:02:41.854Z,57.10
2018-04-28T12:05:10.795Z,56.70
2018-04-28T12:07:37.182Z,56.20
2018-04-28T12:10:04.015Z,57.00
2018-04-28T12:12:30.690Z,57.50
2018-04-28T12:14:57.870Z,56.60
2018-04-28T12:17:24.333Z,55.60
2018-04-28T12:19:50.914Z,55.40
2018-04-28T12:22:18.289Z,55.60
2018-04-28T12:24:44.497Z,55.90
2018-04-28T12:27:11.614Z,56.20
2018-04-28T12:29:38.214Z,56.10
2018-04-28T12:32:06.427Z,55.50
2018-04-28T12:34:32.749Z,54.10
2018-04-28T12:37:08.263Z,55.00
2018-04-28T12:39:34.594Z,54.50
2018-04-28T12:42:01.008Z,54.80
2018-04-28T12:44:27.965Z,55.20
2018-04-28T12:46:54.728Z,55.10
2018-04-28T12:49:21.072Z,55.50
2018-04-28T12:51:48.153Z,56.20
2018-04-28T12:54:16.285Z,56.00
2018-04-28T12:56:43.405Z,55.80
2018-04-28T12:59:10.869Z,55.20
2018-04-28T13:01:37.058Z,55.00
2018-04-28T13:04:03.412Z,55.90
2018-04-28T13:06:30.343Z,53.40
2018-04-28T13:08:56.654Z,53.30
2018-04-28T13:11:22.838Z,53.40
2018-04-28T13:13:49.855Z,54.10
2018-04-28T13:16:16.403Z,54.00
2018-04-28T13:18:43.462Z,53.50
2018-04-28T13:21:09.700Z,53.40
2018-04-28T13:23:35.945Z,54.10
2018-04-28T13:26:03.728Z,54.50
2018-04-28T13:28:31.171Z,55.70
2018-04-28T13:30:57.642Z,56.10
2018-04-28T13:33:25.650Z,56.40
2018-04-28T13:35:51.951Z,56.40
2018-04-28T13:38:19.072Z,57.80
2018-04-28T13:40:45.343Z,55.10
2018-04-28T13:43:13.595Z,54.70
2018-04-28T13:45:39.720Z,54.20
2018-04-28T13:48:07.617Z,55.10
2018-04-28T13:50:35.867Z,55.60
2018-04-28T13:53:02.953Z,55.90
2018-04-28T13:55:29.504Z,55.00
2018-04-28T13:57:55.733Z,55.90
2018-04-28T14:00:22.626Z,56.40
2018-04-28T14:02:49.164Z,57.20
2018-04-28T14:05:18.441Z,57.70
2018-04-28T14:07:45.507Z,57.80
2018-04-28T14:10:12.847Z,57.30
2018-04-28T14:12:40.474Z,57.20
2018-04-28T14:15:07.451Z,57.10
2018-04-28T14:17:33.756Z,57.30
2018-04-28T14:19:59.877Z,57.90
2018-04-28T14:22:27.139Z,57.40
2018-04-28T14:24:55.460Z,57.30
2018-04-28T14:27:24.326Z,56.90
2018-04-28T14:29:50.498Z,56.30
2018-04-28T14:32:17.889Z,56.10
2018-04-28T14:34:45.300Z,55.90
2018-04-28T14:37:11.599Z,56.00
2018-04-28T14:39:41.025Z,56.40
2018-04-28T14:42:08.859Z,56.00
2018-04-28T14:44:36.804Z,55.70
2018-04-28T14:47:03.085Z,55.70
2018-04-28T14:49:30.831Z,56.40
2018-04-28T14:51:57.658Z,55.30
2018-04-28T14:54:25.854Z,55.70
2018-04-28T14:56:52.890Z,55.90
2018-04-28T14:59:20.394Z,55.90
2018-04-28T15:01:46.581Z,56.40
2018-04-28T15:04:14.627Z,56.60
2018-04-28T15:06:42.321Z,56.80
2018-04-28T15:09:08.552Z,56.60
2018-04-28T15:11:35.796Z,56.80
2018-04-28T15:14:02.939Z,56.50
2018-04-28T15:16:30.300Z,56.40
2018-04-28T15:18:57.089Z,55.90
2018-04-28T15:21:23.351Z,56.10
2018-04-28T15:23:50.011Z,56.30
2018-04-28T15:26:17.248Z,56.40
2018-04-28T15:28:43.588Z,56.60
2018-04-28T15:31:12.814Z,56.80
2018-04-28T15:33:39.022Z,57.20
2018-04-28T15:36:06.043Z,57.70
2018-04-28T15:38:32.331Z,57.60
2018-04-28T15:40:59.470Z,58.10
2018-04-28T15:43:25.683Z,58.10
2018-04-28T15:45:53.234Z,58.50
2018-04-28T15:48:19.616Z,58.50
2018-04-28T15:50:46.302Z,58.40
2018-04-28T15:53:14.026Z,58.50
2018-04-28T15:55:40.854Z,58.40
2018-04-28T15:58:08.131Z,58.60
2018-04-28T16:00:35.617Z,58.60
2018-04-28T16:03:05.694Z,58.50
2018-04-28T16:05:32.090Z,58.90
2018-04-28T16:07:58.450Z,58.80
2018-04-28T16:10:25.349Z,59.00
2018-04-28T16:12:52.490Z,59.70
2018-04-28T16:15:19.858Z,59.60
2018-04-28T16:17:46.783Z,60.00
2018-04-28T16:20:13.038Z,59.00
2018-04-28T16:22:39.195Z,59.30
2018-04-28T16:25:05.286Z,59.70
2018-04-28T16:27:31.530Z,59.10
2018-04-28T16:29:59.842Z,59.40
2018-04-28T16:32:27.092Z,59.30
2018-04-28T16:34:53.913Z,59.20
2018-04-28T16:37:21.525Z,59.30
2018-04-28T16:39:48.539Z,59.20
2018-04-28T16:42:14.886Z,58.20
2018-04-28T16:44:41.197Z,57.60
2018-04-28T16:47:07.360Z,56.10
2018-04-28T16:49:33.703Z,55.30
2018-04-28T16:52:00.309Z,55.00
2018-04-28T16:54:28.536Z,55.20
2018-04-28T16:56:54.730Z,55.70
2018-04-28T16:59:20.771Z,56.00
2018-04-28T17:01:47.039Z,56.40
2018-04-28T17:04:13.843Z,56.50
2018-04-28T17:06:40.055Z,56.00
2018-04-28T17:09:07.158Z,55.90
2018-04-28T17:11:34.471Z,55.90
2018-04-28T17:14:01.671Z,55.80
2018-04-28T17:16:29.604Z,55.80
2018-04-28T17:18:56.633Z,55.40
2018-04-28T17:21:27.178Z,55.80
2018-04-28T17:23:56.073Z,56.10
2018-04-28T17:26:24.285Z,56.00
2018-04-28T17:28:51.601Z,55.90
2018-04-28T17:31:18.012Z,56.10
2018-04-28T17:33:44.256Z,56.70
2018-04-28T17:36:12.237Z,57.00
2018-04-28T17:38:38.395Z,56.90
2018-04-28T17:41:04.665Z,56.30
2018-04-28T17:43:30.813Z,57.80
2018-04-28T17:45:57.231Z,56.50
2018-04-28T17:48:36.632Z,57.90
2018-04-28T17:51:05.543Z,58.20
2018-04-28T17:53:33.856Z,58.20
2018-04-28T17:56:00.187Z,57.50
2018-04-28T17:58:27.664Z,57.60
2018-04-28T18:00:54.059Z,58.30
2018-04-28T18:03:21.427Z,59.50
2018-04-28T18:05:47.606Z,59.50
2018-04-28T18:08:14.409Z,59.20
2018-04-28T18:10:40.986Z,59.50
2018-04-28T18:13:07.881Z,59.10
2018-04-28T18:15:34.166Z,59.40
2018-04-28T18:18:01.120Z,59.90
2018-04-28T18:20:27.392Z,60.00
2018-04-28T18:22:54.822Z,60.40
2018-04-28T18:25:22.186Z,60.80
2018-04-28T18:27:49.447Z,61.40
2018-04-28T18:30:16.801Z,64.10
2018-04-28T18:32:44.453Z,63.30
2018-04-28T18:35:11.399Z,64.80
2018-04-28T18:37:38.069Z,65.20
2018-04-28T18:40:04.672Z,67.70
2018-04-28T18:42:32.921Z,67.80
2018-04-28T18:44:59.148Z,70.10
2018-04-28T18:47:25.714Z,71.10
2018-04-28T18:49:51.953Z,70.60
2018-04-28T18:52:18.375Z,72.50
2018-04-28T18:54:47.117Z,73.80
2018-04-28T18:57:13.463Z,73.80
2018-04-28T18:59:39.591Z,76.20
2018-04-28T19:02:05.708Z,77.20
2018-04-28T19:04:31.834Z,81.20
2018-04-28T19:06:58.914Z,77.20
2018-04-28T19:09:25.167Z,79.30
2018-04-28T19:11:52.497Z,80.20
2018-04-28T19:14:19.582Z,80.20
2018-04-28T19:16:46.145Z,77.20
2018-04-28T19:19:13.411Z,77.20
2018-04-28T19:21:39.605Z,77.10
2018-04-28T19:24:05.684Z,77.40
2018-04-28T19:26:31.823Z,75.70
2018-04-28T19:28:57.948Z,76.00
2018-04-28T19:31:24.942Z,77.50
2018-04-28T19:33:51.123Z,77.50
2018-04-28T19:36:17.834Z,78.60
2018-04-28T19:38:44.728Z,79.10
2018-04-28T19:41:11.055Z,78.90
2018-04-28T19:43:37.168Z,81.90
2018-04-28T19:46:03.562Z,80.60
2018-04-28T19:48:29.807Z,81.30
2018-04-28T19:50:55.941Z,82.40
2018-04-28T19:53:22.710Z,81.80
2018-04-28T19:55:48.832Z,82.60
2018-04-28T19:58:15.199Z,84.70
2018-04-28T20:00:41.424Z,83.30
2018-04-28T20:03:08.060Z,83.30
2018-04-28T20:05:35.126Z,84.20
2018-04-28T20:08:02.093Z,84.80
2018-04-28T20:10:31.591Z,84.80
2018-04-28T20:12:58.783Z,85.60
2018-04-28T20:15:24.887Z,85.90
2018-04-28T20:17:51.243Z,87.00
2018-04-28T20:20:17.485Z,87.40
2018-04-28T20:25:55.633Z,86.60
2018-04-28T20:28:23.058Z,87.60
2018-04-28T20:30:49.246Z,87.60
2018-04-28T20:33:15.275Z,88.30
2018-04-28T20:35:41.540Z,88.50
2018-04-28T20:38:08.434Z,87.90
2018-04-28T20:40:34.575Z,87.60
2018-04-28T20:43:01.030Z,88.00
2018-04-28T20:45:27.703Z,88.80
2018-04-28T20:47:54.815Z,88.80
2018-04-28T20:50:21.068Z,90.20
2018-04-28T20:52:47.267Z,90.60
2018-04-28T20:55:14.124Z,91.10
2018-04-28T20:57:42.338Z,92.20
2018-04-28T21:00:10.760Z,92.10
2018-04-28T21:02:38.954Z,92.60
2018-04-28T21:05:07.316Z,93.10
2018-04-28T21:07:34.308Z,94.00
2018-04-28T21:10:00.522Z,93.90
2018-04-28T21:12:28.773Z,95.00
2018-04-28T21:14:56.821Z,96.10
2018-04-28T21:17:23.159Z,96.70
2018-04-28T21:19:49.804Z,97.20
2018-04-28T21:22:17.170Z,96.80
2018-04-28T21:24:43.526Z,97.10
2018-04-28T21:27:09.686Z,97.70
2018-04-28T21:29:35.756Z,98.50
2018-04-28T21:32:01.829Z,99.20
2018-04-28T21:34:28.282Z,99.90
2018-04-28T21:36:54.653Z,99.90
2018-04-28T21:39:22.889Z,99.90
2018-04-28T21:41:51.954Z,99.90
2018-04-28T21:44:18.382Z,99.90
2018-04-28T21:46:45.140Z,99.90
2018-04-28T21:49:11.328Z,99.90
2018-04-28T21:51:38.608Z,99.90
2018-04-28T21:54:06.717Z,99.90
2018-04-28T21:56:33.412Z,99.90
2018-04-28T21:59:00.768Z,99.90
2018-04-28T22:01:28.240Z,99.90
2018-04-28T22:03:55.827Z,99.90
2018-04-28T22:08:54.640Z,99.90
2018-04-28T22:11:22.201Z,99.90
2018-04-28T22:13:50.212Z,99.90
2018-04-28T22:16:16.441Z,99.90
2018-04-28T22:18:46.225Z,99.90
2018-04-28T22:21:12.365Z,99.90
2018-04-28T22:23:38.524Z,99.90
2018-04-28T22:26:04.961Z,99.90
2018-04-28T22:28:32.619Z,99.90
2018-04-28T22:30:58.985Z,99.90
2018-04-28T22:33:27.956Z,99.90
2018-04-28T22:35:57.345Z,99.90
2018-04-28T22:38:24.501Z,99.90
2018-04-28T22:40:52.930Z,99.90
2018-04-28T22:43:19.116Z,99.90
2018-04-28T22:45:47.277Z,99.90
2018-04-28T22:48:15.658Z,99.90
2018-04-28T22:50:42.538Z,99.90
2018-04-28T22:53:09.796Z,99.90
2018-04-28T22:55:36.575Z,99.90
2018-04-28T22:58:03.582Z,99.90
2018-04-28T23:00:40.961Z,99.90
2018-04-28T23:03:07.123Z,99.90
2018-04-28T23:05:33.647Z,99.90
2018-04-28T23:07:59.837Z,99.90
2018-04-28T23:10:29.935Z,99.90
2018-04-28T23:15:31.119Z,99.90
2018-04-28T23:17:57.816Z,99.90
2018-04-28T23:20:25.729Z,99.90
2018-04-28T23:22:52.996Z,99.90
2018-04-28T23:25:19.569Z,99.90
2018-04-28T23:27:47.260Z,99.90
2018-04-28T23:30:14.546Z,99.90
2018-04-28T23:32:40.736Z,99.90
2018-04-28T23:35:07.112Z,99.90
2018-04-28T23:37:34.438Z,99.90
2018-04-28T23:40:00.891Z,99.90
2018-04-28T23:42:28.746Z,99.90
2018-04-28T23:44:56.605Z,99.90
2018-04-28T23:47:23.960Z,99.90
2018-04-28T23:49:53.341Z,99.90
2018-04-28T23:52:20.509Z,99.90
2018-04-28T23:54:47.400Z,99.90
2018-04-28T23:57:14.033Z,99.90
2018-04-28T23:59:41.100Z,99.90
